Fogelsville, Pennsylvania
Current Conditions -  °F | °C
As of 2:35 PM on Sunday 21 Dec 2014 (Local Time) from KXLL Reporting Station
Broken Clouds Broken Clouds  
Wind Chill: 30°   Ceiling: 3000
Heat Index: 36°   Visibility: 10mi
Dew Point: 23°   Wind: 7mph
Humidity: 60%   Direction: 360°N
Pressure: 30.3"   Gusts: NA
Location:  40.58°N, 75.63°W
Report Text: KXLL 211935Z AUTO 36006KT 10SM BKN030 02/M05 A3030 RMK AO2
Loading
Personal Weather Stations






























Interactive Weather Map New forecast layout! Learn more

10-Day Weather Forecast

Advertisements
Track Severe Weather on mobile